Time;durP1;ratioP1;P1;durP2;ratioP2;P2;SDS_P1;SDS_P2;PMS_P1;PMS_P2;Temp;Humidity;BMP_temperature;BMP_pressure;BME280_temperature;BME280_humidity;BME280_pressure;Samples;Min_cycle;Max_cycle;Signal;HPM_P1;HPM_P2
2021/05/28 00:00:04;;;;;;;11.43;9.00;;;10.20;99.90;;;;;;5069179;28;20427;-68
2021/05/28 00:02:32;;;;;;;11.43;8.52;;;10.20;99.90;;;;;;5065549;28;20044;-68
2021/05/28 00:04:59;;;;;;;11.25;8.48;;;10.10;99.90;;;;;;5063632;28;20053;-68
2021/05/28 00:07:26;;;;;;;13.93;9.93;;;10.10;99.90;;;;;;5057954;28;20437;-68
2021/05/28 00:09:54;;;;;;;12.30;8.57;;;10.00;99.90;;;;;;5071607;28;20468;-66
2021/05/28 00:12:21;;;;;;;13.07;9.38;;;10.00;99.90;;;;;;5067227;28;20045;-66
2021/05/28 00:14:48;;;;;;;12.65;9.70;;;10.00;99.90;;;;;;5058806;28;20033;-67
2021/05/28 00:17:16;;;;;;;12.68;9.43;;;10.10;99.90;;;;;;5053088;28;20048;-66
2021/05/28 00:19:43;;;;;;;12.10;9.32;;;10.10;99.90;;;;;;5070730;28;20064;-66
2021/05/28 00:22:10;;;;;;;11.05;9.35;;;10.10;99.90;;;;;;5070749;28;20056;-67
2021/05/28 00:24:37;;;;;;;12.65;9.32;;;10.10;99.90;;;;;;5063842;28;20123;-66
2021/05/28 00:27:06;;;;;;;12.75;10.05;;;10.00;99.90;;;;;;5071116;28;20464;-67
2021/05/28 00:29:33;;;;;;;12.20;9.50;;;10.00;99.90;;;;;;5069852;28;20055;-67
2021/05/28 00:32:02;;;;;;;12.65;9.02;;;10.10;99.90;;;;;;5070831;28;20419;-67
2021/05/28 00:34:30;;;;;;;13.10;9.73;;;10.10;99.90;;;;;;5060716;28;20064;-67
2021/05/28 00:36:57;;;;;;;11.93;9.68;;;10.10;99.90;;;;;;5070384;28;20048;-67
2021/05/28 00:39:24;;;;;;;15.35;9.23;;;10.10;99.90;;;;;;5071027;28;20051;-67
2021/05/28 00:41:52;;;;;;;11.73;9.02;;;10.10;99.90;;;;;;5070162;28;20080;-67
2021/05/28 00:44:26;;;;;;;16.35;9.18;;;10.10;99.90;;;;;;5071221;28;20102;-67
2021/05/28 00:46:54;;;;;;;11.95;9.48;;;10.10;99.90;;;;;;5065899;28;20124;-67
2021/05/28 00:49:22;;;;;;;11.98;9.32;;;10.10;99.90;;;;;;5069597;28;20056;-67
2021/05/28 00:51:50;;;;;;;13.13;9.80;;;10.10;99.90;;;;;;5067568;28;20565;-67
2021/05/28 00:54:17;;;;;;;13.32;9.32;;;10.00;99.90;;;;;;5070923;28;20076;-67
2021/05/28 00:56:44;;;;;;;12.27;9.93;;;10.10;99.90;;;;;;5069244;28;20079;-67
2021/05/28 00:59:13;;;;;;;13.40;9.95;;;10.10;99.90;;;;;;5069435;28;20055;-67
2021/05/28 01:01:41;;;;;;;13.10;9.35;;;10.10;99.90;;;;;;5070474;28;20079;-67
2021/05/28 01:04:08;;;;;;;15.38;10.45;;;10.10;99.90;;;;;;5051930;28;20528;-67
2021/05/28 01:06:36;;;;;;;13.77;10.25;;;10.10;99.90;;;;;;5069017;28;20128;-67
2021/05/28 01:09:04;;;;;;;11.70;9.20;;;10.10;99.90;;;;;;5059243;28;20052;-67
2021/05/28 01:11:32;;;;;;;12.93;9.93;;;10.10;99.90;;;;;;5060954;28;20167;-67
2021/05/28 01:14:01;;;;;;;13.88;10.63;;;10.00;99.90;;;;;;5064748;28;20132;-67
2021/05/28 01:16:28;;;;;;;13.57;10.20;;;10.00;99.90;;;;;;5057761;28;20091;-68
2021/05/28 01:18:58;;;;;;;15.25;10.13;;;9.90;99.90;;;;;;5069604;28;20052;-67
2021/05/28 01:21:26;;;;;;;14.48;11.63;;;9.90;99.90;;;;;;5057686;28;20036;-67
2021/05/28 01:23:54;;;;;;;16.52;11.68;;;9.90;99.90;;;;;;5061833;28;20094;-67
2021/05/28 01:26:22;;;;;;;16.25;11.50;;;9.90;99.90;;;;;;5064490;28;20041;-67
2021/05/28 01:28:49;;;;;;;18.15;11.13;;;9.90;99.90;;;;;;5061343;28;20079;-67
2021/05/28 01:31:17;;;;;;;15.20;11.00;;;9.80;99.90;;;;;;5068509;28;20422;-67
2021/05/28 01:33:47;;;;;;;14.55;10.93;;;9.80;99.90;;;;;;5065353;28;20049;-67
2021/05/28 01:36:14;;;;;;;15.30;10.40;;;9.80;99.90;;;;;;5066824;28;20044;-67
2021/05/28 01:38:42;;;;;;;15.88;10.20;;;9.80;99.90;;;;;;5070072;28;20044;-67
2021/05/28 01:41:09;;;;;;;16.83;11.80;;;9.90;99.90;;;;;;5070460;28;20556;-67
2021/05/28 01:43:36;;;;;;;14.93;11.35;;;9.90;99.90;;;;;;5064109;28;20098;-67
2021/05/28 01:46:04;;;;;;;16.90;11.45;;;9.90;99.90;;;;;;5070259;28;20135;-67
2021/05/28 01:48:31;;;;;;;15.55;11.73;;;9.90;99.90;;;;;;5069612;28;20048;-67
2021/05/28 01:50:58;;;;;;;14.55;11.18;;;9.90;99.90;;;;;;5067177;28;20083;-67
2021/05/28 01:53:27;;;;;;;13.80;10.80;;;10.00;99.90;;;;;;5069695;28;20127;-67
2021/05/28 01:55:55;;;;;;;15.68;11.40;;;10.00;99.90;;;;;;5065830;28;20080;-67
2021/05/28 01:58:24;;;;;;;15.68;11.48;;;10.00;99.90;;;;;;5067146;28;20490;-68
2021/05/28 02:00:56;;;;;;;16.08;11.75;;;10.00;99.90;;;;;;5059732;28;20095;-67
2021/05/28 02:03:25;;;;;;;16.50;11.93;;;9.90;99.90;;;;;;5063186;28;20076;-67
2021/05/28 02:05:52;;;;;;;15.90;12.02;;;9.90;99.90;;;;;;5070275;28;20751;-67
2021/05/28 02:08:20;;;;;;;15.65;11.13;;;9.90;99.90;;;;;;5069702;28;20147;-67
2021/05/28 02:10:49;;;;;;;17.85;11.45;;;9.90;99.90;;;;;;5067790;28;20044;-67
2021/05/28 02:13:16;;;;;;;14.57;11.32;;;9.90;99.90;;;;;;5068967;28;20084;-67
2021/05/28 02:15:44;;;;;;;16.27;12.65;;;9.90;99.90;;;;;;5068524;28;20502;-66
2021/05/28 02:18:11;;;;;;;16.92;12.07;;;9.90;99.90;;;;;;5061754;28;20053;-66
2021/05/28 02:20:38;;;;;;;16.67;11.93;;;9.80;99.90;;;;;;5064549;28;20053;-67
2021/05/28 02:23:06;;;;;;;14.90;11.25;;;9.80;99.90;;;;;;5054953;28;20114;-67
2021/05/28 02:25:33;;;;;;;15.15;11.10;;;9.70;99.90;;;;;;5055596;28;20033;-67
2021/05/28 02:28:00;;;;;;;15.80;11.57;;;9.70;99.90;;;;;;5057484;28;20075;-67
2021/05/28 02:30:28;;;;;;;16.55;11.95;;;9.60;99.90;;;;;;5067540;28;20173;-67
2021/05/28 02:32:55;;;;;;;18.60;12.88;;;9.60;99.90;;;;;;5055916;28;20101;-67
2021/05/28 02:35:23;;;;;;;17.15;12.55;;;9.50;99.90;;;;;;5056547;28;20076;-67
2021/05/28 02:37:50;;;;;;;17.38;13.63;;;9.50;99.90;;;;;;5066854;28;20057;-67
2021/05/28 02:40:18;;;;;;;16.50;12.18;;;9.50;99.90;;;;;;5059178;28;20064;-67
2021/05/28 02:42:45;;;;;;;20.50;13.20;;;9.50;99.90;;;;;;5056807;28;20049;-66
2021/05/28 02:45:12;;;;;;;16.17;12.57;;;9.50;99.90;;;;;;5070599;28;20045;-67
2021/05/28 02:47:40;;;;;;;16.50;12.25;;;9.60;99.90;;;;;;5072074;28;20076;-67
2021/05/28 02:50:08;;;;;;;14.68;11.68;;;9.60;99.90;;;;;;5069170;28;20052;-66
2021/05/28 02:52:35;;;;;;;17.58;12.38;;;9.60;99.90;;;;;;5072646;28;20051;-66
2021/05/28 02:55:04;;;;;;;15.45;11.65;;;9.70;99.90;;;;;;5072251;28;20522;-66
2021/05/28 02:57:31;;;;;;;16.38;12.60;;;9.70;99.90;;;;;;5069757;28;20151;-66
2021/05/28 02:59:59;;;;;;;19.67;12.50;;;9.80;99.90;;;;;;5072066;28;20057;-67
2021/05/28 03:02:27;;;;;;;17.48;12.52;;;9.80;99.90;;;;;;5071594;28;20068;-68
2021/05/28 03:04:54;;;;;;;17.75;12.68;;;9.80;99.90;;;;;;5055815;28;20415;-67
2021/05/28 03:07:22;;;;;;;17.88;12.88;;;9.80;99.90;;;;;;5070085;28;20049;-67
2021/05/28 03:09:49;;;;;;;15.68;12.00;;;9.80;99.90;;;;;;5072867;28;20052;-67
2021/05/28 03:12:16;;;;;;;19.00;12.55;;;9.70;99.90;;;;;;5072623;28;20080;-67
2021/05/28 03:14:43;;;;;;;18.17;12.90;;;9.70;99.90;;;;;;5072970;28;20483;-67
2021/05/28 03:17:11;;;;;;;16.40;12.77;;;9.60;99.90;;;;;;5071153;28;20458;-67
2021/05/28 03:19:46;;;;;;;19.48;13.90;;;9.60;99.90;;;;;;5070897;28;20132;-67
2021/05/28 03:24:42;;;;;;;16.38;12.75;;;9.70;99.90;;;;;;5058762;28;20127;-67
2021/05/28 03:27:10;;;;;;;21.67;14.25;;;9.60;99.90;;;;;;5070816;28;20186;-67
2021/05/28 03:29:38;;;;;;;20.98;14.55;;;9.70;99.90;;;;;;5072306;28;20411;-67
2021/05/28 03:32:05;;;;;;;22.15;14.65;;;9.70;99.90;;;;;;5071241;28;20094;-65
2021/05/28 03:34:33;;;;;;;20.35;14.70;;;9.70;99.90;;;;;;5068908;28;20048;-67
2021/05/28 03:37:00;;;;;;;20.20;14.73;;;9.70;99.90;;;;;;5071657;28;20106;-67
2021/05/28 03:39:28;;;;;;;21.02;15.25;;;9.80;99.90;;;;;;5070329;28;20380;-67
2021/05/28 03:41:55;;;;;;;20.30;14.77;;;9.80;99.90;;;;;;5071420;28;20527;-67
2021/05/28 03:44:23;;;;;;;21.40;14.70;;;9.80;99.90;;;;;;5071843;28;20095;-67
2021/05/28 03:46:50;;;;;;;19.65;14.43;;;9.80;99.90;;;;;;5069482;28;20045;-67
2021/05/28 03:49:18;;;;;;;24.27;15.40;;;9.90;99.90;;;;;;5054264;28;20410;-67
2021/05/28 03:51:45;;;;;;;19.80;14.65;;;9.90;99.90;;;;;;5060029;28;20041;-67
2021/05/28 03:54:13;;;;;;;24.02;14.75;;;9.90;99.90;;;;;;5063871;28;20082;-67
2021/05/28 03:56:41;;;;;;;23.88;14.63;;;10.00;99.90;;;;;;5069001;28;20044;-67
2021/05/28 03:59:08;;;;;;;24.75;15.43;;;10.00;99.90;;;;;;5068933;28;20053;-67
2021/05/28 04:01:35;;;;;;;21.30;14.52;;;10.00;99.90;;;;;;5035639;28;20044;-67
2021/05/28 04:04:03;;;;;;;23.63;16.75;;;10.00;99.90;;;;;;5072046;28;20056;-67
2021/05/28 04:06:30;;;;;;;23.67;16.25;;;10.00;99.90;;;;;;5069354;28;20072;-67
2021/05/28 04:08:58;;;;;;;24.17;16.60;;;9.90;99.90;;;;;;5069505;28;20056;-67
2021/05/28 04:11:25;;;;;;;25.92;16.33;;;9.90;99.90;;;;;;5070923;28;20044;-67
2021/05/28 04:13:53;;;;;;;22.85;15.75;;;10.00;99.90;;;;;;5052602;28;20449;-67
2021/05/28 04:16:20;;;;;;;22.25;16.20;;;10.00;99.90;;;;;;5070835;28;20091;-66
2021/05/28 04:18:48;;;;;;;24.83;16.95;;;10.00;99.90;;;;;;5068891;28;20082;-68
2021/05/28 04:21:15;;;;;;;25.80;17.33;;;10.10;99.90;;;;;;5071077;28;20060;-67
2021/05/28 04:23:45;;;;;;;24.50;16.52;;;10.10;99.90;;;;;;5065478;28;20131;-68
2021/05/28 04:26:12;;;;;;;24.05;16.20;;;10.10;99.90;;;;;;5064192;28;20560;-68
2021/05/28 04:28:39;;;;;;;24.73;16.55;;;10.10;99.90;;;;;;5070175;28;20076;-66
2021/05/28 04:31:08;;;;;;;23.17;16.27;;;10.10;99.90;;;;;;5071233;28;20120;-67
2021/05/28 04:33:35;;;;;;;21.65;15.18;;;10.10;99.90;;;;;;5069643;28;20063;-67
2021/05/28 04:36:04;;;;;;;28.63;17.90;;;10.20;99.90;;;;;;5070384;28;20041;-67
2021/05/28 04:38:31;;;;;;;23.58;16.50;;;10.20;99.90;;;;;;5070772;28;20522;-68
2021/05/28 04:40:59;;;;;;;22.45;16.17;;;10.30;99.90;;;;;;5068026;28;20132;-67
2021/05/28 04:43:26;;;;;;;22.75;15.52;;;10.30;99.90;;;;;;5065314;28;20105;-67
2021/05/28 04:45:53;;;;;;;22.80;16.33;;;10.40;99.90;;;;;;5068198;28;20049;-67
2021/05/28 04:48:21;;;;;;;25.67;17.00;;;10.50;99.90;;;;;;5068994;28;20052;-67
2021/05/28 04:50:48;;;;;;;22.27;15.88;;;10.60;99.90;;;;;;5062816;28;20103;-67
2021/05/28 04:53:16;;;;;;;25.83;16.80;;;10.70;99.90;;;;;;5051493;28;20128;-66
2021/05/28 04:55:43;;;;;;;25.75;16.42;;;10.90;99.90;;;;;;5068170;28;20044;-67
2021/05/28 04:58:11;;;;;;;21.08;15.27;;;11.00;99.90;;;;;;5069259;28;20561;-67
2021/05/28 05:00:38;;;;;;;24.77;16.80;;;11.20;99.90;;;;;;5068392;28;20052;-67
2021/05/28 05:03:05;;;;;;;22.40;16.30;;;11.20;99.90;;;;;;5070634;28;20067;-67
2021/05/28 05:05:32;;;;;;;22.95;16.55;;;11.20;99.90;;;;;;5070992;28;20441;-67
2021/05/28 05:08:00;;;;;;;22.10;16.40;;;11.10;99.90;;;;;;5066964;28;20045;-67
2021/05/28 05:10:27;;;;;;;25.67;17.20;;;11.20;99.90;;;;;;5068538;28;20083;-67
2021/05/28 05:12:55;;;;;;;23.13;15.93;;;11.20;99.90;;;;;;5066377;28;20053;-67
2021/05/28 05:15:22;;;;;;;22.92;16.73;;;11.10;99.90;;;;;;5070638;28;20060;-67
2021/05/28 05:17:50;;;;;;;23.70;15.70;;;11.10;99.90;;;;;;5070580;28;20056;-67
2021/05/28 05:20:17;;;;;;;23.27;16.65;;;11.10;99.90;;;;;;5065490;28;20353;-67
2021/05/28 05:22:45;;;;;;;26.00;16.73;;;11.30;99.90;;;;;;5052056;28;20156;-67
2021/05/28 05:25:12;;;;;;;24.42;16.48;;;11.40;99.90;;;;;;5055552;28;20048;-66
2021/05/28 05:27:40;;;;;;;25.40;15.98;;;11.50;99.90;;;;;;5072773;28;20132;-67
2021/05/28 05:30:08;;;;;;;21.75;15.57;;;11.60;99.90;;;;;;5053589;28;20110;-67
2021/05/28 05:32:35;;;;;;;24.65;15.85;;;11.70;99.90;;;;;;5058312;28;20048;-67
2021/05/28 05:35:04;;;;;;;20.20;14.90;;;11.70;99.90;;;;;;5069004;28;20136;-66
2021/05/28 05:37:31;;;;;;;23.33;15.80;;;11.70;99.90;;;;;;5051873;28;20062;-67
2021/05/28 05:39:58;;;;;;;21.80;15.93;;;11.80;99.90;;;;;;5069836;28;20125;-67
2021/05/28 05:42:25;;;;;;;21.98;16.02;;;11.90;99.90;;;;;;5053968;28;20087;-67
2021/05/28 05:44:53;;;;;;;19.52;14.45;;;12.00;99.90;;;;;;5052248;28;20087;-67
2021/05/28 05:47:20;;;;;;;20.27;15.75;;;12.00;99.90;;;;;;5068424;28;20049;-67
2021/05/28 05:49:47;;;;;;;19.40;14.07;;;12.00;99.90;;;;;;5066162;28;20048;-68
2021/05/28 05:52:15;;;;;;;21.90;16.40;;;12.20;99.90;;;;;;5067644;28;20552;-67
2021/05/28 05:54:42;;;;;;;21.52;15.27;;;12.30;99.90;;;;;;5068611;28;20079;-67
2021/05/28 05:57:09;;;;;;;24.17;16.67;;;12.40;99.90;;;;;;5070079;28;20068;-67
2021/05/28 05:59:37;;;;;;;20.98;14.73;;;12.60;99.90;;;;;;5073141;28;20551;-68
2021/05/28 06:02:04;;;;;;;20.60;15.80;;;13.10;99.90;;;;;;5073028;28;20135;-67
2021/05/28 06:04:31;;;;;;;19.13;14.20;;;13.40;99.90;;;;;;5063500;28;20103;-67
2021/05/28 06:06:59;;;;;;;19.15;14.57;;;13.60;99.90;;;;;;5055517;28;20090;-67
2021/05/28 06:09:26;;;;;;;20.35;15.15;;;13.50;99.90;;;;;;5072254;28;20123;-67
2021/05/28 06:11:55;;;;;;;18.25;14.77;;;13.40;99.90;;;;;;5073524;28;20443;-67
2021/05/28 06:14:22;;;;;;;18.52;14.40;;;13.30;99.90;;;;;;5070574;28;20052;-67
2021/05/28 06:16:49;;;;;;;20.55;15.05;;;13.40;99.90;;;;;;5069873;28;20479;-67
2021/05/28 06:19:17;;;;;;;21.27;15.73;;;13.60;99.90;;;;;;5071152;28;20072;-67
2021/05/28 06:21:44;;;;;;;18.50;14.93;;;13.60;99.90;;;;;;5073258;28;20555;-67
2021/05/28 06:24:12;;;;;;;21.15;16.08;;;13.60;99.90;;;;;;5073443;28;20305;-66
2021/05/28 06:26:39;;;;;;;21.33;16.35;;;13.50;99.90;;;;;;5072925;28;20123;-67
2021/05/28 06:29:07;;;;;;;20.67;16.05;;;13.40;99.90;;;;;;5073462;28;20068;-66
2021/05/28 06:31:35;;;;;;;19.48;13.77;;;13.50;99.90;;;;;;5073047;28;20045;-66
2021/05/28 06:34:03;;;;;;;16.02;13.13;;;13.60;99.90;;;;;;5066543;28;20079;-66
2021/05/28 06:36:30;;;;;;;18.48;14.85;;;13.60;99.90;;;;;;5071692;28;20102;-67
2021/05/28 06:38:57;;;;;;;19.95;15.50;;;13.60;99.90;;;;;;5071884;28;20561;-67
2021/05/28 06:41:25;;;;;;;19.95;15.43;;;13.50;99.90;;;;;;5071984;28;20067;-67
2021/05/28 06:43:52;;;;;;;19.65;14.90;;;13.40;99.90;;;;;;5066767;28;20044;-67
2021/05/28 06:46:20;;;;;;;19.73;14.48;;;13.40;99.90;;;;;;5072007;28;20403;-67
2021/05/28 06:48:47;;;;;;;15.38;12.95;;;13.40;99.90;;;;;;5071446;28;20089;-67
2021/05/28 06:51:17;;;;;;;19.02;12.93;;;13.40;99.90;;;;;;5064757;28;20068;-66
2021/05/28 06:53:45;;;;;;;14.65;12.70;;;13.50;99.90;;;;;;5068540;28;20403;-67
2021/05/28 06:56:12;;;;;;;16.88;12.52;;;13.50;99.90;;;;;;5072706;28;20072;-66
2021/05/28 06:58:46;;;;;;;18.23;13.38;;;13.40;99.90;;;;;;5066630;28;20060;-67
2021/05/28 07:01:14;;;;;;;20.13;13.35;;;13.30;99.90;;;;;;5066801;28;20048;-67
2021/05/28 07:03:41;;;;;;;20.35;14.82;;;13.20;99.90;;;;;;5069635;28;20058;-66
2021/05/28 07:06:09;;;;;;;14.95;12.30;;;13.20;99.90;;;;;;5070819;28;20048;-67
2021/05/28 07:08:37;;;;;;;18.20;14.10;;;13.10;99.90;;;;;;5069172;28;20041;-67
2021/05/28 07:11:05;;;;;;;14.65;11.93;;;13.00;99.90;;;;;;5070707;28;20060;-67
2021/05/28 07:13:32;;;;;;;18.13;13.27;;;13.10;99.90;;;;;;5072570;28;20067;-67
2021/05/28 07:15:59;;;;;;;16.00;12.88;;;13.00;99.90;;;;;;5072437;28;20063;-66
2021/05/28 07:18:27;;;;;;;16.25;12.30;;;13.00;99.90;;;;;;5071223;28;20060;-67
2021/05/28 07:20:54;;;;;;;19.65;13.30;;;13.20;99.90;;;;;;5071688;28;20048;-67
2021/05/28 07:23:23;;;;;;;20.35;12.40;;;13.10;99.90;;;;;;5070231;28;20268;-66
2021/05/28 07:25:51;;;;;;;16.35;12.40;;;13.30;99.90;;;;;;5072285;28;20044;-66
2021/05/28 07:28:18;;;;;;;15.13;12.20;;;13.40;99.90;;;;;;5070103;28;20044;-66
2021/05/28 07:30:47;;;;;;;18.02;13.20;;;13.70;99.90;;;;;;5072458;28;20472;-66
2021/05/28 07:33:14;;;;;;;19.58;13.63;;;13.80;99.90;;;;;;5069931;28;20118;-66
2021/05/28 07:35:42;;;;;;;15.45;11.52;;;13.80;99.90;;;;;;5061221;28;20122;-66
2021/05/28 07:38:09;;;;;;;14.55;12.13;;;13.90;99.90;;;;;;5070143;28;20053;-66
2021/05/28 07:40:37;;;;;;;19.10;12.68;;;14.10;99.90;;;;;;5070381;28;20145;-66
2021/05/28 07:43:05;;;;;;;13.93;11.38;;;14.30;99.90;;;;;;5060488;28;20064;-67
2021/05/28 07:45:33;;;;;;;13.30;11.15;;;14.40;99.90;;;;;;5062224;28;20048;-67
2021/05/28 07:48:00;;;;;;;12.90;10.40;;;14.40;99.90;;;;;;5067442;28;20050;-67
2021/05/28 07:50:44;;;;;;;14.45;11.95;;;14.60;99.90;;;;;;5064916;28;20075;-67
2021/05/28 07:53:18;;;;;;;13.93;11.45;;;14.70;99.90;;;;;;5057511;28;20047;-67
2021/05/28 07:55:46;;;;;;;12.35;10.55;;;14.70;99.90;;;;;;5064941;28;20075;-66
2021/05/28 07:58:13;;;;;;;14.55;10.80;;;14.80;99.90;;;;;;5053973;28;20052;-67
2021/05/28 08:00:41;;;;;;;14.85;10.90;;;14.70;99.90;;;;;;5067913;28;20426;-67
2021/05/28 08:03:08;;;;;;;12.98;11.25;;;14.70;99.90;;;;;;5069195;28;20144;-67
2021/05/28 08:05:36;;;;;;;13.48;11.50;;;14.90;99.90;;;;;;5067510;28;20098;-66
2021/05/28 08:08:08;;;;;;;15.77;11.13;;;14.90;99.90;;;;;;5051228;28;20095;-67
2021/05/28 08:10:36;;;;;;;13.13;10.68;;;15.10;99.90;;;;;;5067496;28;20056;-67
2021/05/28 08:13:04;;;;;;;11.55;10.35;;;15.40;99.90;;;;;;5058039;28;20076;-67
2021/05/28 08:15:32;;;;;;;13.23;10.07;;;15.70;99.90;;;;;;5068185;28;20106;-67
2021/05/28 08:18:00;;;;;;;12.18;10.30;;;15.70;99.90;;;;;;5070567;28;20098;-67
2021/05/28 08:20:27;;;;;;;12.80;10.25;;;15.90;99.90;;;;;;5069205;28;20123;-67
2021/05/28 08:22:58;;;;;;;14.10;11.07;;;15.80;99.90;;;;;;5069347;28;20466;-67
2021/05/28 08:25:27;;;;;;;14.00;10.82;;;15.80;99.90;;;;;;5064157;28;20159;-67
2021/05/28 08:27:55;;;;;;;11.68;10.48;;;16.00;99.90;;;;;;5068359;28;20056;-67
2021/05/28 08:30:22;;;;;;;12.30;11.02;;;16.30;99.90;;;;;;5070999;28;20110;-66
2021/05/28 08:32:50;;;;;;;12.63;11.20;;;16.30;99.90;;;;;;5063715;28;20207;-67
2021/05/28 08:35:17;;;;;;;10.95;9.85;;;16.30;99.90;;;;;;5074984;28;20102;-67
2021/05/28 08:37:45;;;;;;;11.10;9.88;;;16.10;99.90;;;;;;5064210;28;20056;-66
2021/05/28 08:40:13;;;;;;;12.18;10.98;;;15.90;99.90;;;;;;5068819;28;20052;-67
2021/05/28 08:42:43;;;;;;;11.65;10.45;;;16.00;99.90;;;;;;5070265;28;20137;-67
2021/05/28 08:45:12;;;;;;;10.05;9.15;;;15.80;99.90;;;;;;5070403;28;20132;-67
2021/05/28 08:47:41;;;;;;;14.05;11.48;;;16.10;99.90;;;;;;5069401;28;20048;-67
2021/05/28 08:50:10;;;;;;;13.15;11.77;;;16.10;99.90;;;;;;5066409;28;20422;-67
2021/05/28 08:52:38;;;;;;;12.35;11.15;;;15.80;99.90;;;;;;5061648;28;20090;-67
2021/05/28 08:55:06;;;;;;;13.10;10.30;;;15.90;99.90;;;;;;5059275;28;20076;-67
2021/05/28 08:57:33;;;;;;;12.30;9.90;;;16.10;99.90;;;;;;5067364;28;20068;-66
2021/05/28 09:00:01;;;;;;;11.70;10.50;;;16.10;99.90;;;;;;5068584;28;20072;-67
2021/05/28 09:02:38;;;;;;;11.82;10.63;;;16.10;99.90;;;;;;5067314;28;20399;-66
2021/05/28 09:05:21;;;;;;;11.52;10.32;;;15.80;99.90;;;;;;5062540;28;20471;-67
2021/05/28 09:07:59;;;;;;;;;;;15.60;99.90;;;;;;5060489;28;20263;-66
2021/05/28 09:10:39;;;;;;;10.75;9.75;;;15.70;99.90;;;;;;5068675;28;20366;-67
2021/05/28 09:13:14;;;;;;;11.32;10.23;;;15.40;99.90;;;;;;5069341;28;20082;-67
2021/05/28 09:15:47;;;;;;;10.38;9.07;;;15.30;99.90;;;;;;5050200;28;20080;-67
2021/05/28 09:18:15;;;;;;;11.75;9.82;;;15.40;99.90;;;;;;5056392;28;20049;-67
2021/05/28 09:20:53;;;;;;;12.25;10.38;;;15.60;99.90;;;;;;5069315;28;20036;-67
2021/05/28 09:23:21;;;;;;;12.35;10.48;;;15.70;99.90;;;;;;5057918;28;20518;-67
2021/05/28 09:26:05;;;;;;;12.10;9.88;;;15.60;99.90;;;;;;5064327;28;20505;-67
2021/05/28 09:28:43;;;;;;;13.57;10.30;;;15.40;99.90;;;;;;5063358;28;20065;-66
2021/05/28 09:31:18;;;;;;;11.88;10.68;;;15.30;99.90;;;;;;5062006;28;20098;-66
2021/05/28 09:34:00;;;;;;;12.75;10.63;;;15.30;99.90;;;;;;5070551;28;20518;-67
2021/05/28 09:36:32;;;;;;;11.20;10.00;;;15.30;99.90;;;;;;5066365;28;20479;-66
2021/05/28 09:39:09;;;;;;;11.37;9.83;;;15.20;99.90;;;;;;5074006;28;20052;-67
2021/05/28 09:41:52;;;;;;;14.10;11.32;;;15.20;99.90;;;;;;5072963;28;20094;-66
2021/05/28 09:44:27;;;;;;;11.40;10.15;;;15.20;99.90;;;;;;5067939;28;20037;-67
2021/05/28 09:46:57;;;;;;;14.60;10.93;;;15.10;99.90;;;;;;5065229;28;20499;-67
2021/05/28 09:49:26;;;;;;;11.95;9.68;;;14.90;99.90;;;;;;5068286;28;20109;-67
2021/05/28 09:52:24;;;;;;;12.07;9.45;;;15.00;99.90;;;;;;5072345;28;20064;-67
2021/05/28 09:55:06;;;;;;;11.00;8.88;;;15.10;99.90;;;;;;5069390;28;20048;-66
2021/05/28 09:57:36;;;;;;;10.27;8.90;;;15.30;99.90;;;;;;5061401;28;20109;-66
2021/05/28 10:00:08;;;;;;;11.65;8.27;;;15.10;99.90;;;;;;5070650;28;20504;-67
2021/05/28 10:02:42;;;;;;;12.53;9.17;;;15.20;99.90;;;;;;5069402;28;20037;-67
2021/05/28 10:05:11;;;;;;;9.73;8.25;;;15.40;99.90;;;;;;5068512;28;20502;-67
2021/05/28 10:07:39;;;;;;;9.75;7.90;;;15.40;99.90;;;;;;5078652;28;20526;-67
2021/05/28 10:10:09;;;;;;;11.37;7.97;;;15.60;99.90;;;;;;5062471;28;20387;-67
2021/05/28 10:12:37;;;;;;;8.98;6.95;;;15.70;99.90;;;;;;5070876;28;20048;-66
2021/05/28 10:15:09;;;;;;;9.23;7.90;;;15.60;99.90;;;;;;5073471;28;20059;-67
2021/05/28 10:17:36;;;;;;;9.45;8.10;;;15.70;99.90;;;;;;5073010;28;20048;-67
2021/05/28 10:20:05;;;;;;;10.80;7.65;;;15.80;99.90;;;;;;5072188;28;20538;-67
2021/05/28 10:22:36;;;;;;;8.63;7.13;;;15.80;99.90;;;;;;5073186;28;20045;-66
2021/05/28 10:25:06;;;;;;;9.18;8.02;;;15.90;99.90;;;;;;5074379;28;20062;-66
2021/05/28 10:27:33;;;;;;;12.40;7.93;;;16.30;99.90;;;;;;5058761;28;20049;-67
2021/05/28 10:30:13;;;;;;;8.30;7.50;;;16.50;99.90;;;;;;5070843;28;20059;-66
2021/05/28 10:32:41;;;;;;;7.18;6.50;;;16.60;99.90;;;;;;5071362;28;20056;-66
2021/05/28 10:35:17;;;;;;;7.90;7.20;;;16.90;99.90;;;;;;5072132;28;20052;-68
2021/05/28 10:37:46;;;;;;;10.57;6.72;;;17.20;99.90;;;;;;5082681;28;20453;-66
2021/05/28 10:40:42;;;;;;;9.50;8.60;;;17.50;99.90;;;;;;5070532;28;20109;-66
2021/05/28 10:43:19;;;;;;;8.02;7.30;;;17.60;99.90;;;;;;5062427;28;20059;-66
2021/05/28 10:46:02;;;;;;;9.45;6.90;;;18.00;99.90;;;;;;5073148;28;20076;-67
2021/05/28 10:48:39;;;;;;;8.32;7.63;;;18.60;99.90;;;;;;5071946;28;20059;-67
2021/05/28 10:51:12;;;;;;;11.82;8.20;;;18.70;99.90;;;;;;5065544;28;20360;-67
2021/05/28 10:53:50;;;;;;;8.50;7.65;;;18.70;99.90;;;;;;5066389;28;20040;-67
2021/05/28 10:56:36;;;;;;;8.32;7.53;;;18.70;99.90;;;;;;5072751;28;20048;-67
2021/05/28 10:59:20;;;;;;;9.25;7.50;;;19.00;99.90;;;;;;5070839;28;20052;-68
2021/05/28 11:01:49;;;;;;;8.55;7.75;;;19.10;99.90;;;;;;5070164;28;20052;-68
2021/05/28 11:04:24;;;;;;;8.60;7.55;;;19.20;99.90;;;;;;5070749;28;20393;-67
2021/05/28 11:06:57;;;;;;;8.23;7.47;;;19.20;99.90;;;;;;5067924;28;20048;-67
2021/05/28 11:09:47;;;;;;;9.00;8.05;;;19.10;99.90;;;;;;5058773;28;20064;-67
2021/05/28 11:12:26;;;;;;;8.30;7.65;;;19.10;99.90;;;;;;5054882;28;20067;-67
2021/05/28 11:15:10;;;;;;;8.80;8.00;;;19.00;99.90;;;;;;5055499;28;20144;-66
2021/05/28 11:18:01;;;;;;;8.68;7.70;;;18.70;99.90;;;;;;5056541;28;20080;-67
2021/05/28 11:20:35;;;;;;;8.55;7.75;;;18.70;99.90;;;;;;5061082;28;20080;-67
2021/05/28 11:23:21;;;;;;;9.30;8.00;;;18.60;99.90;;;;;;5068320;28;20044;-67
2021/05/28 11:25:52;;;;;;;8.80;7.97;;;18.60;99.90;;;;;;5070257;28;20045;-67
2021/05/28 11:28:20;;;;;;;8.32;7.63;;;18.60;99.90;;;;;;5071663;28;20075;-67
2021/05/28 11:30:59;;;;;;;8.60;7.80;;;18.70;99.90;;;;;;5054131;28;20392;-67
2021/05/28 11:33:41;;;;;;;8.32;7.60;;;18.80;99.90;;;;;;5068984;28;20135;-67
2021/05/28 11:36:34;;;;;;;9.55;8.68;;;18.70;99.90;;;;;;5070212;28;20122;-66
2021/05/28 11:39:05;;;;;;;8.55;7.68;;;18.30;99.90;;;;;;5072041;28;20067;-68
2021/05/28 11:41:52;;;;;;;9.30;8.40;;;18.40;99.90;;;;;;5068967;28;20388;-67
2021/05/28 11:44:22;;;;;;;8.68;8.07;;;18.20;99.90;;;;;;5065697;28;20076;-67
2021/05/28 11:46:51;;;;;;;8.75;7.95;;;18.20;99.90;;;;;;5065799;28;20060;-68
2021/05/28 11:49:21;;;;;;;9.10;8.20;;;17.90;99.90;;;;;;5086649;28;20059;-67
2021/05/28 11:52:01;;;;;;;8.15;7.40;;;17.80;99.90;;;;;;5072088;28;20928;-68
2021/05/28 11:54:31;;;;;;;8.27;7.60;;;17.70;99.90;;;;;;5059894;28;20051;-68
2021/05/28 11:57:13;;;;;;;8.13;7.43;;;17.90;99.90;;;;;;5070191;28;20106;-67
2021/05/28 11:59:56;;;;;;;9.10;7.80;;;18.00;99.90;;;;;;5070185;28;20055;-68
2021/05/28 12:02:37;;;;;;;8.68;7.88;;;18.00;99.90;;;;;;5071355;28;20071;-67
2021/05/28 12:05:13;;;;;;;8.38;7.60;;;18.30;99.90;;;;;;5061985;28;20052;-68
2021/05/28 12:07:40;;;;;;;8.70;7.90;;;18.20;99.90;;;;;;5068960;28;20041;-68
2021/05/28 12:10:11;;;;;;;8.10;7.30;;;18.10;99.90;;;;;;5063048;28;20037;-68
2021/05/28 12:12:50;;;;;;;7.95;7.03;;;18.30;99.90;;;;;;5056622;28;20495;-68
2021/05/28 12:15:20;;;;;;;7.90;7.20;;;18.50;99.90;;;;;;5054388;28;20072;-68
2021/05/28 12:17:48;;;;;;;7.97;7.13;;;18.30;99.90;;;;;;5070441;28;20454;-67
2021/05/28 12:20:34;;;;;;;7.95;7.25;;;18.20;99.90;;;;;;5070223;28;20086;-68
2021/05/28 12:23:08;;;;;;;8.38;7.68;;;18.50;99.90;;;;;;5066962;28;20052;-67
2021/05/28 12:25:52;;;;;;;8.07;7.30;;;18.20;99.90;;;;;;5066527;28;20113;-68
2021/05/28 12:28:25;;;;;;;7.85;7.15;;;18.40;99.90;;;;;;5069080;28;20048;-68
2021/05/28 12:31:02;;;;;;;7.88;7.18;;;19.40;99.90;;;;;;5069328;28;20528;-67
2021/05/28 12:33:33;;;;;;;8.70;7.82;;;19.70;99.90;;;;;;5069546;28;20560;-68
2021/05/28 12:36:04;;;;;;;9.05;8.38;;;19.80;99.90;;;;;;5053082;28;20052;-68
2021/05/28 12:38:43;;;;;;;9.60;8.75;;;19.50;99.90;;;;;;5070703;28;20064;-68
2021/05/28 12:41:31;;;;;;;8.85;8.05;;;19.30;99.90;;;;;;5069501;28;20139;-68
2021/05/28 12:44:01;;;;;;;9.20;8.40;;;19.00;99.90;;;;;;5069773;28;20442;-67
2021/05/28 12:46:37;;;;;;;9.00;8.10;;;19.10;99.90;;;;;;5056375;28;20179;-68
2021/05/28 12:49:05;;;;;;;8.20;7.50;;;18.70;99.90;;;;;;5055733;28;20044;-68
2021/05/28 12:51:40;;;;;;;8.50;7.90;;;18.80;99.90;;;;;;5066842;28;20082;-68